Terminal Aerodrome Forecast
Issued by NWS Binghamton, NY

Home | Current Version | Previous Version | Text Only | Print | Product List | Glossary On
Versions: 1 2 3 4 5 6 7 8 9 10 11 12 13 14 15 16 17 18 19 20
808
FTUS41 KBGM 191738
TAFSYR
TAF
KSYR 191738Z 1918/2018 31012G20KT P6SM -SHSN SCT028 BKN040
      TEMPO 1918/1922 3SM -SHSN BR OVC028
     FM192200 31010G18KT P6SM -SHSN SCT015 OVC025
      TEMPO 1922/2002 2SM -SHSN BR OVC015
     FM200400 30010KT P6SM -SHSN OVC015
     FM201500 30012G20KT P6SM BKN025=

USA.gov is the U.S. government's official web portal to all federal, state and local government web resources and services.